Time;durP1;ratioP1;P1;durP2;ratioP2;P2;SDS_P1;SDS_P2;PMS_P1;PMS_P2;Temp;Humidity;BMP_temperature;BMP_pressure;BME280_temperature;BME280_humidity;BME280_pressure;Samples;Min_cycle;Max_cycle;Signal;HPM_P1;HPM_P2
2022/04/10 00:01:34;;;;;;;22.83;13.65;;;;;;;15.62;66.38;98204.13;4785796;30;20540;-60
2022/04/10 00:04:01;;;;;;;19.90;12.77;;;;;;;15.67;66.28;98210.88;4786372;29;20206;-61
2022/04/10 00:06:29;;;;;;;16.47;12.63;;;;;;;15.64;66.24;98202.31;4785958;29;20205;-61
2022/04/10 00:08:56;;;;;;;23.60;12.70;;;;;;;15.62;66.63;98211.88;4785911;30;20208;-60
2022/04/10 00:11:23;;;;;;;18.57;11.47;;;;;;;15.68;66.44;98210.00;4786205;29;20317;-61
2022/04/10 00:13:50;;;;;;;13.23;9.77;;;;;;;15.63;66.73;98218.78;4786395;29;20235;-61
2022/04/10 00:16:17;;;;;;;18.98;10.77;;;;;;;15.67;66.54;98226.41;4785811;30;20930;-61
2022/04/10 00:18:44;;;;;;;12.87;10.20;;;;;;;15.71;66.55;98222.03;4786112;30;20204;-61
2022/04/10 00:21:12;;;;;;;20.10;10.90;;;;;;;15.67;66.67;98229.00;4785898;29;20266;-61
2022/04/10 00:23:40;;;;;;;21.37;11.53;;;;;;;15.60;66.97;98231.78;4785764;29;20292;-62
2022/04/10 00:26:07;;;;;;;21.07;12.57;;;;;;;15.52;66.56;98213.81;4786032;30;20972;-61
2022/04/10 00:28:34;;;;;;;25.93;12.43;;;;;;;15.61;66.62;98228.28;4786211;30;20212;-61
2022/04/10 00:31:00;;;;;;;20.33;13.00;;;;;;;15.64;66.66;98223.91;4786041;30;20221;-61
2022/04/10 00:33:27;;;;;;;20.53;13.97;;;;;;;15.64;66.51;98223.91;4785803;30;20213;-61
2022/04/10 00:35:55;;;;;;;22.90;12.47;;;;;;;15.54;66.73;98217.25;4786005;30;20292;-61
2022/04/10 00:38:21;;;;;;;19.83;12.60;;;;;;;15.45;67.41;98213.97;4785627;29;20249;-61
2022/04/10 00:40:50;;;;;;;21.47;11.87;;;;;;;15.47;67.24;98226.03;4785679;29;20209;-61
2022/04/10 00:43:17;;;;;;;15.77;10.60;;;;;;;15.38;67.29;98202.09;4785913;29;21141;-61
2022/04/10 00:45:44;;;;;;;13.03;9.57;;;;;;;15.45;67.29;98225.19;4785874;30;20942;-61
2022/04/10 00:48:11;;;;;;;13.93;8.67;;;;;;;15.43;67.90;98229.56;4785711;30;20205;-61
2022/04/10 00:51:40;;;;;;;15.60;8.90;;;;;;;15.44;68.06;98239.00;4785670;29;20225;-61
2022/04/10 00:53:27;;;;;;;12.47;7.70;;;;;;;15.42;67.83;98232.16;4785617;30;20715;-61
2022/04/10 00:55:55;;;;;;;15.73;9.00;;;;;;;15.45;68.19;98239.88;4784786;30;20494;-61
2022/04/10 00:58:22;;;;;;;12.43;7.93;;;;;;;15.44;68.02;98245.94;4785418;30;20212;-61
2022/04/10 01:00:49;;;;;;;11.90;7.60;;;;;;;15.46;67.73;98242.47;4785504;30;20221;-61
2022/04/10 01:03:16;;;;;;;16.07;7.50;;;;;;;15.49;67.86;98247.56;4785299;30;20208;-61
2022/04/10 01:05:46;;;;;;;13.50;6.93;;;;;;;15.44;67.83;98248.53;4785460;30;20202;-61
2022/04/10 01:08:13;;;;;;;14.10;7.40;;;;;;;15.31;68.21;98243.63;4785526;30;20288;-61
2022/04/10 01:10:40;;;;;;;12.03;7.10;;;;;;;15.35;68.18;98242.66;4785470;30;20217;-61
2022/04/10 01:13:09;;;;;;;12.17;7.13;;;;;;;15.29;68.34;98235.06;4785201;30;20347;-61
2022/04/10 01:15:36;;;;;;;17.03;7.87;;;;;;;15.27;68.61;98241.16;4785286;30;20674;-61
2022/04/10 01:18:04;;;;;;;15.33;7.07;;;;;;;15.27;68.66;98244.56;4785849;29;20204;-61
2022/04/10 01:20:32;;;;;;;13.07;7.63;;;;;;;15.28;68.66;98241.09;4789041;30;20264;-61
2022/04/10 01:23:01;;;;;;;12.10;6.63;;;;;;;15.32;68.61;98242.75;4788967;29;20236;-61
2022/04/10 01:25:29;;;;;;;11.60;7.10;;;;;;;15.31;68.40;98235.00;4788938;30;20584;-62
2022/04/10 01:27:56;;;;;;;10.13;6.33;;;;;;;15.32;68.55;98228.97;4788939;30;20201;-61
2022/04/10 01:30:24;;;;;;;11.97;6.67;;;;;;;15.28;68.27;98224.72;4787999;29;20210;-61
2022/04/10 01:32:51;;;;;;;10.73;6.57;;;;;;;15.32;68.42;98236.72;4771047;30;20248;-61
2022/04/10 01:35:19;;;;;;;12.23;6.63;;;;;;;15.25;68.99;98237.72;4770826;30;20209;-61
2022/04/10 01:37:47;;;;;;;8.47;6.93;;;;;;;15.22;69.00;98235.22;4770825;30;20696;-61
2022/04/10 01:40:15;;;;;;;8.87;6.17;;;;;;;15.21;69.00;98231.78;4770816;30;20199;-61
2022/04/10 01:42:42;;;;;;;13.43;6.30;;;;;;;15.26;69.25;98229.94;4770591;30;20713;-60
2022/04/10 01:45:10;;;;;;;9.97;6.33;;;;;;;15.33;69.31;98233.22;4770804;30;20198;-61
2022/04/10 01:47:37;;;;;;;11.60;6.07;;;;;;;15.38;68.78;98230.56;4770834;30;20205;-60
2022/04/10 01:50:04;;;;;;;10.48;6.45;;;;;;;15.47;68.79;98220.84;4769790;30;20830;-61
2022/04/10 01:52:31;;;;;;;10.33;6.20;;;;;;;15.60;67.95;98217.06;4770462;30;20626;-60
2022/04/10 01:54:58;;;;;;;13.20;6.20;;;;;;;15.67;67.74;98221.25;4770534;30;20694;-61
2022/04/10 01:57:26;;;;;;;11.57;5.47;;;;;;;15.63;67.75;98217.00;4770690;30;20206;-60
2022/04/10 01:59:53;;;;;;;13.20;5.97;;;;;;;15.66;67.37;98206.56;4770542;30;20678;-61
2022/04/10 02:02:20;;;;;;;8.33;5.53;;;;;;;15.53;67.71;98212.94;4770747;30;20202;-60
2022/04/10 02:04:47;;;;;;;12.10;6.03;;;;;;;15.56;67.56;98214.59;4769543;30;20455;-60
2022/04/10 02:07:14;;;;;;;11.90;5.80;;;;;;;15.40;67.94;98216.69;4770484;30;20202;-60
2022/04/10 02:09:40;;;;;;;15.87;6.50;;;;;;;15.07;68.86;98220.03;4770289;30;20587;-60
2022/04/10 02:12:09;;;;;;;12.10;6.30;;;;;;;15.11;69.36;98212.16;4770184;30;20231;-62
2022/04/10 02:14:37;;;;;;;12.13;6.30;;;;;;;15.12;69.29;98210.44;4770384;30;20260;-61
2022/04/10 02:17:05;;;;;;;8.40;5.70;;;;;;;15.12;69.34;98213.03;4770638;30;20313;-61
2022/04/10 02:19:31;;;;;;;9.83;6.23;;;;;;;14.91;70.31;98216.09;4770452;30;20233;-61
2022/04/10 02:21:59;;;;;;;10.03;6.17;;;;;;;14.83;70.64;98224.03;4770394;30;20312;-61
2022/04/10 02:24:26;;;;;;;11.20;6.13;;;;;;;14.90;70.58;98214.38;4770482;30;20333;-61
2022/04/10 02:26:53;;;;;;;9.40;5.80;;;;;;;14.94;70.35;98203.94;4770216;30;20206;-62
2022/04/10 02:29:20;;;;;;;12.63;5.70;;;;;;;14.92;70.51;98210.88;4770426;30;20210;-61
2022/04/10 02:31:48;;;;;;;12.97;6.33;;;;;;;14.91;70.41;98195.41;4769860;30;20209;-61
2022/04/10 02:34:15;;;;;;;13.67;5.83;;;;;;;14.94;70.60;98198.78;4770090;30;20203;-61
2022/04/10 02:36:42;;;;;;;18.53;7.03;;;;;;;14.91;70.78;98203.16;4769754;30;20331;-61
2022/04/10 02:39:09;;;;;;;11.70;5.60;;;;;;;14.98;70.37;98202.13;4769755;30;20214;-62
2022/04/10 02:41:36;;;;;;;8.50;5.83;;;;;;;15.02;70.25;98209.81;4769999;30;20341;-62
2022/04/10 02:44:03;;;;;;;11.23;6.10;;;;;;;15.00;70.06;98211.56;4769685;30;20297;-62
2022/04/10 02:46:30;;;;;;;11.33;5.87;;;;;;;14.89;70.48;98210.09;4769504;30;20208;-61
2022/04/10 02:48:58;;;;;;;8.53;5.70;;;;;;;14.80;71.03;98213.75;4769772;30;20207;-61
2022/04/10 02:51:25;;;;;;;12.23;5.33;;;;;;;14.76;71.10;98212.94;4769639;30;20204;-61
2022/04/10 02:53:52;;;;;;;9.33;5.53;;;;;;;14.80;71.07;98208.56;4769558;30;20736;-62
2022/04/10 02:56:19;;;;;;;10.57;5.00;;;;;;;14.74;71.02;98203.53;4769513;30;20251;-61
2022/04/10 02:58:46;;;;;;;10.63;5.60;;;;;;;14.65;71.45;98198.53;4769314;30;20206;-61
2022/04/10 03:01:12;;;;;;;11.37;5.57;;;;;;;14.49;72.03;98189.41;4769655;30;20288;-61
2022/04/10 03:03:39;;;;;;;11.17;5.67;;;;;;;14.54;72.04;98196.16;4769479;30;20680;-61
2022/04/10 03:06:08;;;;;;;10.80;5.30;;;;;;;14.56;72.06;98191.81;4769347;30;20209;-62
2022/04/10 03:08:34;;;;;;;7.80;5.10;;;;;;;14.62;71.94;98199.44;4769222;30;20743;-61
2022/04/10 03:11:03;;;;;;;8.70;5.60;;;;;;;14.66;71.60;98195.94;4769286;30;20214;-61
2022/04/10 03:13:30;;;;;;;8.47;5.53;;;;;;;14.70;71.44;98205.31;4769195;30;20229;-61
2022/04/10 03:15:57;;;;;;;8.23;4.83;;;;;;;14.75;71.40;98200.88;4769431;30;20212;-61
2022/04/10 03:18:24;;;;;;;15.57;5.10;;;;;;;14.68;71.22;98201.91;4769402;30;20207;-61
2022/04/10 03:20:51;;;;;;;16.87;5.37;;;;;;;14.70;71.39;98202.72;4769158;30;20207;-61
2022/04/10 03:23:19;;;;;;;10.93;5.57;;;;;;;14.69;71.36;98201.03;4769076;30;20209;-61
2022/04/10 03:25:46;;;;;;;10.77;5.93;;;;;;;14.61;71.51;98200.31;4769169;30;20203;-61
2022/04/10 03:28:13;;;;;;;12.23;5.90;;;;;;;14.54;71.93;98200.47;4769136;30;20236;-61
2022/04/10 03:30:40;;;;;;;11.47;5.93;;;;;;;14.46;72.25;98192.03;4768926;30;20237;-61
2022/04/10 03:33:07;;;;;;;13.30;7.53;;;;;;;14.40;72.44;98194.72;4768852;30;20238;-61
2022/04/10 03:35:34;;;;;;;11.37;6.70;;;;;;;14.45;72.28;98192.94;4769200;30;20198;-61
2022/04/10 03:38:00;;;;;;;10.13;7.03;;;;;;;14.42;72.46;98183.47;4768769;30;20238;-61
2022/04/10 03:40:29;;;;;;;10.43;6.60;;;;;;;14.46;72.46;98184.28;4768416;30;20211;-61
2022/04/10 03:42:56;;;;;;;10.27;5.73;;;;;;;14.51;72.42;98196.22;4768664;30;20296;-61
2022/04/10 03:45:22;;;;;;;11.80;5.90;;;;;;;14.43;72.46;98202.44;4768699;30;20210;-61
2022/04/10 03:47:49;;;;;;;14.80;6.03;;;;;;;14.40;72.59;98198.19;4768816;30;20591;-61
2022/04/10 03:50:16;;;;;;;11.97;6.07;;;;;;;14.34;72.91;98208.63;4768829;30;20214;-61
2022/04/10 03:52:44;;;;;;;11.50;5.23;;;;;;;14.32;73.31;98202.66;4768844;30;20235;-60
2022/04/10 03:55:10;;;;;;;10.47;5.53;;;;;;;14.33;72.80;98203.50;4768762;30;20202;-61
2022/04/10 03:57:39;;;;;;;8.53;5.13;;;;;;;14.38;73.13;98207.69;4768544;30;20291;-60
2022/04/10 04:00:07;;;;;;;12.73;5.83;;;;;;;14.46;72.59;98215.28;4768362;30;20216;-60
2022/04/10 04:02:34;;;;;;;9.93;5.90;;;;;;;14.46;72.42;98216.16;4768351;30;20566;-61
2022/04/10 04:05:01;;;;;;;13.80;6.03;;;;;;;14.47;72.52;98230.78;4768575;30;20202;-60
2022/04/10 04:07:28;;;;;;;12.10;6.27;;;;;;;14.55;72.40;98228.03;4768268;30;20587;-61
2022/04/10 04:09:55;;;;;;;8.27;5.77;;;;;;;14.52;72.10;98236.72;4772591;29;20213;-57
2022/04/10 04:12:22;;;;;;;13.93;6.03;;;;;;;14.62;71.88;98227.03;4785917;30;20245;-58
2022/04/10 04:14:50;;;;;;;14.53;6.00;;;;;;;14.63;71.65;98234.75;4786185;30;20241;-58
2022/04/10 04:17:17;;;;;;;9.63;6.27;;;;;;;14.73;71.39;98249.19;4786225;30;20650;-58
2022/04/10 04:19:46;;;;;;;11.00;5.87;;;;;;;14.75;71.04;98252.59;4785754;30;20292;-57
2022/04/10 04:22:13;;;;;;;17.07;5.47;;;;;;;14.80;71.15;98269.75;4785849;30;20621;-58
2022/04/10 04:24:40;;;;;;;12.17;5.77;;;;;;;14.85;70.93;98278.28;4786209;30;20239;-58
2022/04/10 04:27:07;;;;;;;9.83;6.00;;;;;;;14.88;70.76;98271.31;4786089;30;20200;-59
2022/04/10 04:29:34;;;;;;;9.13;5.47;;;;;;;14.83;70.67;98274.88;4785813;30;20299;-59
2022/04/10 04:32:03;;;;;;;10.90;5.17;;;;;;;14.88;70.63;98275.63;4785732;30;20203;-59
2022/04/10 04:34:31;;;;;;;16.37;6.30;;;;;;;14.95;70.54;98269.44;4785960;30;20311;-59
2022/04/10 04:36:58;;;;;;;16.43;6.40;;;;;;;14.99;70.63;98265.91;4785724;29;20249;-59
2022/04/10 04:39:25;;;;;;;12.23;5.40;;;;;;;14.98;70.55;98262.47;4784974;29;20214;-59
2022/04/10 04:41:52;;;;;;;18.30;6.57;;;;;;;14.99;70.25;98273.69;4785590;29;20209;-59
2022/04/10 04:44:34;;;;;;;12.80;5.27;;;;;;;15.01;70.13;98280.50;4791199;29;20906;-59
2022/04/10 04:47:02;;;;;;;16.23;7.40;;;;;;;14.53;70.69;98251.31;4792450;29;20610;-59
2022/04/10 04:49:29;;;;;;;11.57;5.77;;;;;;;14.88;70.62;98279.06;4794837;29;20191;-59
2022/04/10 04:51:56;;;;;;;13.07;6.80;;;;;;;14.78;70.79;98278.41;4790563;29;20251;-59
2022/04/10 04:54:23;;;;;;;11.60;5.77;;;;;;;14.80;70.87;98280.09;4773378;29;20698;-59
2022/04/10 04:56:50;;;;;;;9.87;5.83;;;;;;;14.78;70.89;98278.41;4769602;30;20321;-59
2022/04/10 04:59:17;;;;;;;11.97;6.63;;;;;;;14.73;71.16;98280.22;4785435;29;20689;-59
2022/04/10 05:01:45;;;;;;;9.07;5.77;;;;;;;14.81;70.90;98267.13;4785374;30;20209;-59
2022/04/10 05:04:29;;;;;;;14.47;6.17;;;;;;;14.84;71.11;98272.25;4785310;30;20201;-59
2022/04/10 05:06:56;;;;;;;12.80;6.63;;;;;;;14.83;71.21;98270.56;4785154;29;20238;-59
2022/04/10 05:09:22;;;;;;;12.43;6.63;;;;;;;14.92;70.86;98272.09;4785683;30;20584;-59
2022/04/10 05:11:49;;;;;;;17.53;7.37;;;;;;;14.85;71.43;98267.94;4785683;29;20292;-59
2022/04/10 05:14:16;;;;;;;16.73;7.97;;;;;;;14.94;71.12;98266.03;4784191;29;20729;-59
2022/04/10 05:16:43;;;;;;;15.13;7.13;;;;;;;14.96;71.07;98265.97;4784610;29;20696;-59
2022/04/10 05:19:10;;;;;;;12.27;7.23;;;;;;;15.11;70.53;98269.06;4773810;30;20210;-59
2022/04/10 05:21:38;;;;;;;14.63;8.47;;;;;;;15.16;70.56;98276.75;4789337;29;20211;-59
2022/04/10 05:24:06;;;;;;;16.10;6.90;;;;;;;15.21;70.00;98286.13;4802754;29;20291;-59
2022/04/10 05:26:33;;;;;;;12.77;6.80;;;;;;;15.27;69.49;98279.97;4790599;29;20197;-59
2022/04/10 05:29:00;;;;;;;12.10;6.13;;;;;;;15.35;69.12;98291.00;4794108;29;20208;-59
2022/04/10 05:31:27;;;;;;;13.20;6.97;;;;;;;15.22;68.69;98269.69;4793993;29;20301;-59
2022/04/10 05:33:54;;;;;;;13.53;8.50;;;;;;;15.28;69.34;98295.44;4792305;29;20686;-58
2022/04/10 05:36:21;;;;;;;15.47;8.93;;;;;;;15.30;69.34;98288.50;4793608;29;20561;-60
2022/04/10 05:38:50;;;;;;;15.27;8.27;;;;;;;15.33;68.94;98282.41;4783545;29;20262;-60
2022/04/10 05:41:17;;;;;;;17.50;8.20;;;;;;;15.32;69.53;98291.06;4783976;30;20462;-59
2022/04/10 05:43:43;;;;;;;12.33;7.60;;;;;;;15.36;69.10;98287.50;4784727;29;20647;-59
2022/04/10 05:46:13;;;;;;;14.57;8.03;;;;;;;15.30;69.33;98291.09;4784636;30;20216;-59
2022/04/10 05:48:40;;;;;;;14.57;7.53;;;;;;;15.36;69.16;98290.09;4784689;29;20292;-58
2022/04/10 05:51:08;;;;;;;12.97;7.60;;;;;;;15.44;68.81;98289.94;4784997;29;20214;-58
2022/04/10 05:53:35;;;;;;;9.57;7.50;;;;;;;15.47;68.83;98274.34;4784857;29;20284;-59
2022/04/10 05:56:05;;;;;;;13.60;7.80;;;;;;;15.51;68.44;98271.69;4784643;29;20598;-59
2022/04/10 05:58:32;;;;;;;12.50;7.77;;;;;;;15.50;68.35;98272.56;4784535;29;20213;-59
2022/04/10 06:00:59;;;;;;;16.17;7.13;;;;;;;15.59;68.26;98279.25;4784620;29;20203;-59
2022/04/10 06:03:26;;;;;;;14.33;6.43;;;;;;;15.67;68.06;98283.38;4784519;29;20209;-58
2022/04/10 06:05:53;;;;;;;15.27;7.17;;;;;;;15.73;67.72;98283.25;4786787;29;20202;-58
2022/04/10 06:08:20;;;;;;;15.13;7.47;;;;;;;15.79;67.31;98277.88;4770558;30;20233;-58
2022/04/10 06:10:47;;;;;;;19.03;9.90;;;;;;;15.81;67.40;98263.19;4782587;30;20669;-59
2022/04/10 06:13:15;;;;;;;20.70;12.60;;;;;;;15.85;67.47;98269.97;4787752;30;20323;-59
2022/04/10 06:15:42;;;;;;;23.13;13.03;;;;;;;15.90;67.47;98270.72;4787856;30;20567;-59
2022/04/10 06:18:09;;;;;;;24.67;11.33;;;;;;;15.99;67.38;98280.00;4787954;30;20207;-59
2022/04/10 06:20:36;;;;;;;22.70;10.83;;;;;;;16.09;67.09;98276.31;4787905;29;20200;-58
2022/04/10 06:23:03;;;;;;;27.37;12.73;;;;;;;16.24;66.54;98280.22;4788850;30;20236;-58
2022/04/10 06:25:30;;;;;;;16.47;10.03;;;;;;;16.25;65.92;98258.63;4787750;29;20215;-58
2022/04/10 06:27:57;;;;;;;17.90;9.77;;;;;;;16.43;65.65;98269.34;4787646;30;20235;-58
2022/04/10 06:30:25;;;;;;;15.00;9.77;;;;;;;16.53;65.05;98264.81;4787510;29;20465;-58
2022/04/10 06:32:52;;;;;;;13.80;8.93;;;;;;;16.53;64.72;98254.44;4786989;29;20208;-58
2022/04/10 06:35:19;;;;;;;16.13;9.17;;;;;;;16.56;64.73;98263.88;4787906;30;20572;-58
2022/04/10 06:37:46;;;;;;;17.77;10.70;;;;;;;16.55;64.85;98262.16;4787212;29;20238;-58
2022/04/10 06:40:13;;;;;;;15.80;9.30;;;;;;;16.57;64.89;98262.97;4787349;30;20291;-57
2022/04/10 06:42:41;;;;;;;21.37;9.90;;;;;;;16.64;64.76;98260.19;4787445;29;20297;-58
2022/04/10 06:45:09;;;;;;;11.83;7.43;;;;;;;16.51;64.80;98269.97;4787422;29;20202;-61
2022/04/10 06:47:37;;;;;;;17.17;7.03;;;;;;;16.40;65.05;98265.97;4787705;30;20284;-61
2022/04/10 06:50:05;;;;;;;9.17;7.20;;;;;;;16.31;65.10;98266.25;4787678;29;20209;-61
2022/04/10 06:52:32;;;;;;;18.30;6.90;;;;;;;16.27;65.86;98270.63;4787806;30;20205;-61
2022/04/10 06:54:59;;;;;;;15.97;7.73;;;;;;;16.39;65.58;98265.16;4787490;30;20233;-58
2022/04/10 06:57:26;;;;;;;18.50;7.67;;;;;;;16.59;65.24;98268.97;4787273;29;20243;-58
2022/04/10 06:59:53;;;;;;;15.13;8.30;;;;;;;16.75;64.51;98271.09;4786655;29;20328;-59
2022/04/10 07:02:19;;;;;;;13.83;7.40;;;;;;;16.95;63.71;98268.78;4787701;30;20310;-59
2022/04/10 07:04:48;;;;;;;15.43;7.67;;;;;;;17.02;63.35;98264.25;4787436;30;20205;-58
2022/04/10 08:15:00;;;;;;;16.97;7.57;;;;;;;20.31;53.23;98274.16;5127104;27;21078;-58
2022/04/10 08:17:27;;;;;;;12.73;6.20;;;;;;;20.12;53.53;98284.50;5127833;27;20690;-58
2022/04/10 08:19:53;;;;;;;11.83;6.90;;;;;;;20.19;53.35;98300.75;5110742;27;20217;-58
2022/04/10 08:22:24;;;;;;;13.27;7.10;;;;;;;20.19;53.12;98314.63;5107520;28;20218;-58
2022/04/10 08:24:51;;;;;;;12.83;7.20;;;;;;;20.14;52.79;98334.81;5114359;28;20198;-58
2022/04/10 08:27:18;;;;;;;16.37;8.77;;;;;;;19.75;53.99;98341.66;5112298;28;20277;-57
2022/04/10 08:29:45;;;;;;;22.03;9.70;;;;;;;19.18;56.10;98340.28;5106910;28;20686;-58
2022/04/10 08:32:14;;;;;;;16.17;9.50;;;;;;;18.79;57.84;98326.09;5116963;28;20297;-58
2022/04/10 08:34:40;;;;;;;14.63;8.40;;;;;;;18.78;57.93;98335.69;5121957;28;20221;-57
2022/04/10 08:37:07;;;;;;;17.00;8.67;;;;;;;18.42;58.77;98331.72;5127435;28;20660;-58
2022/04/10 08:39:34;;;;;;;12.57;8.03;;;;;;;18.14;61.27;98330.91;5127457;28;20189;-58
2022/04/10 08:42:03;;;;;;;16.47;8.47;;;;;;;17.98;62.77;98337.50;5127199;27;20568;-59
2022/04/10 08:44:31;;;;;;;20.63;9.40;;;;;;;17.96;67.95;98321.97;5126994;28;20278;-58
2022/04/10 08:46:59;;;;;;;19.80;9.30;;;;;;;17.85;70.01;98308.47;5122583;27;20216;-58
2022/04/10 08:49:30;;;;;;;18.20;10.03;;;;;;;17.66;69.01;98289.16;5106189;28;20288;-58
2022/04/10 08:51:58;;;;;;;17.63;10.00;;;;;;;17.73;69.43;98305.41;5103820;28;20656;-57
2022/04/10 08:54:26;;;;;;;16.80;9.90;;;;;;;17.80;68.85;98306.91;5106190;28;20185;-58
2022/04/10 08:56:55;;;;;;;17.80;10.50;;;;;;;17.89;69.59;98311.81;5103090;28;20265;-58
2022/04/10 08:59:22;;;;;;;18.35;10.55;;;;;;;18.01;71.82;98327.88;5106019;28;20443;-58
2022/04/10 09:01:53;;;;;;;23.40;11.37;;;;;;;18.00;71.75;98304.50;5103839;28;20199;-58
2022/04/10 09:04:21;;;;;;;17.40;10.20;;;;;;;17.92;70.25;98278.78;5103932;28;20267;-58
2022/04/10 09:06:58;;;;;;;16.23;11.17;;;;;;;17.91;69.57;98281.44;5106225;28;20194;-59
2022/04/10 09:09:26;;;;;;;17.13;10.83;;;;;;;17.92;71.77;98294.38;5106198;28;20202;-58
2022/04/10 09:11:55;;;;;;;17.57;12.47;;;;;;;17.98;73.55;98276.00;5103900;28;20579;-58
2022/04/10 09:14:22;;;;;;;16.63;12.67;;;;;;;18.00;75.37;98265.53;5099284;28;20237;-58
2022/04/10 09:17:10;;;;;;;15.17;12.47;;;;;;;18.02;70.84;98282.78;5092586;28;20560;-58
2022/04/10 09:19:37;;;;;;;21.30;13.73;;;;;;;17.94;70.34;98276.97;5091585;28;20440;-58
2022/04/10 09:22:25;;;;;;;17.63;11.70;;;;;;;18.03;68.02;98266.28;5092132;28;20186;-58
2022/04/10 09:25:07;;;;;;;20.07;12.37;;;;;;;18.16;67.49;98262.38;5092256;28;20214;-58
2022/04/10 09:27:35;;;;;;;14.37;11.83;;;;;;;18.31;65.86;98271.41;5092003;28;20205;-58
2022/04/10 09:30:03;;;;;;;19.17;13.00;;;;;;;18.47;64.25;98282.13;5092042;28;20198;-59
2022/04/10 09:32:44;;;;;;;13.00;10.80;;;;;;;18.44;60.65;98277.03;5092392;28;20485;-58
2022/04/10 09:35:12;;;;;;;18.40;10.70;;;;;;;18.52;60.45;98273.28;5090090;28;20206;-58
2022/04/10 09:37:48;;;;;;;13.53;10.10;;;;;;;18.62;60.32;98271.22;5091712;28;20281;-59
2022/04/10 09:40:29;;;;;;;13.43;8.87;;;;;;;18.52;56.08;98262.88;5089900;28;20195;-58
2022/04/10 09:43:01;;;;;;;14.40;8.87;;;;;;;18.78;55.65;98264.56;5090244;28;20209;-58
2022/04/10 09:45:33;;;;;;;9.57;8.20;;;;;;;18.93;55.58;98266.59;5091617;28;20696;-58
2022/04/10 09:48:18;;;;;;;15.90;9.60;;;;;;;19.18;58.71;98258.72;5091929;28;20198;-58
2022/04/10 09:50:45;;;;;;;14.90;8.07;;;;;;;19.35;54.91;98248.50;5091714;28;20209;-58
2022/04/10 09:53:13;;;;;;;10.93;8.70;;;;;;;19.51;56.92;98254.84;5090719;28;20190;-58
2022/04/10 09:55:42;;;;;;;15.00;8.50;;;;;;;19.78;56.17;98248.53;5092003;28;20213;-58
2022/04/10 09:58:11;;;;;;;15.33;8.20;;;;;;;19.87;53.75;98245.53;5085872;28;20612;-58
2022/04/10 10:00:40;;;;;;;10.37;8.10;;;;;;;19.80;53.22;98249.31;5086870;28;20206;-58
2022/04/10 10:03:08;;;;;;;11.17;8.60;;;;;;;19.92;54.84;98255.78;5111553;28;20218;-58
2022/04/10 10:05:36;;;;;;;22.73;9.30;;;;;;;20.01;54.78;98255.41;5097876;28;20201;-58
2022/04/10 10:08:03;;;;;;;10.67;9.03;;;;;;;19.89;52.35;98251.53;5091094;28;20194;-58
2022/04/10 10:10:33;;;;;;;11.47;9.23;;;;;;;19.58;52.61;98245.03;5091252;28;20652;-59
2022/04/10 10:13:01;;;;;;;14.33;8.70;;;;;;;19.50;53.00;98252.31;5091391;28;20226;-57
2022/04/10 10:15:28;;;;;;;14.20;9.90;;;;;;;19.47;53.82;98239.41;5090912;28;20444;-58
2022/04/10 10:17:56;;;;;;;14.30;8.30;;;;;;;19.79;53.42;98233.72;5091185;28;20281;-58
2022/04/10 10:20:23;;;;;;;13.07;8.87;;;;;;;19.94;53.67;98222.69;5091087;28;20249;-58
2022/04/10 10:22:51;;;;;;;12.60;9.33;;;;;;;20.09;51.96;98221.19;5091984;28;20199;-59
2022/04/10 10:25:27;;;;;;;11.70;8.73;;;;;;;20.32;51.46;98219.34;5103030;28;20199;-59
2022/04/10 10:28:29;;;;;;;19.13;10.40;;;;;;;20.30;52.77;98221.13;5090244;28;20194;-59
2022/04/10 10:31:11;;;;;;;15.47;10.17;;;;;;;20.02;53.53;98205.78;5091182;28;20195;-58
2022/04/10 10:33:41;;;;;;;13.93;10.27;;;;;;;19.91;53.82;98204.56;5090938;28;20195;-58
2022/04/10 10:36:09;;;;;;;23.13;10.47;;;;;;;19.89;54.13;98208.97;5089405;28;20210;-58
2022/04/10 10:38:36;;;;;;;13.50;10.07;;;;;;;19.61;54.27;98193.66;5089969;28;20272;-58
2022/04/10 10:41:30;;;;;;;13.33;10.73;;;;;;;19.50;54.35;98195.00;5089800;28;20265;-59
2022/04/10 10:43:59;;;;;;;14.10;9.83;;;;;;;19.33;55.59;98203.44;5090191;28;20233;-59
2022/04/10 10:46:28;;;;;;;15.40;10.03;;;;;;;19.33;55.01;98170.44;5090389;28;20314;-58
2022/04/10 10:49:17;;;;;;;13.47;9.30;;;;;;;19.57;54.72;98199.88;5090469;28;20602;-58
2022/04/10 10:51:45;;;;;;;14.47;10.07;;;;;;;19.73;53.34;98189.69;5089946;28;20910;-59
2022/04/10 10:54:14;;;;;;;12.27;9.30;;;;;;;19.94;53.04;98175.75;5090638;28;20985;-58
2022/04/10 10:56:42;;;;;;;9.47;8.43;;;;;;;20.32;52.05;98197.63;5090259;28;20187;-59
2022/04/10 10:59:25;;;;;;;11.67;8.30;;;;;;;20.32;51.26;98185.44;5089070;28;20194;-59
2022/04/10 11:02:03;;;;;;;18.87;9.90;;;;;;;20.21;52.42;98179.78;5087846;28;20198;-59
2022/04/10 11:04:34;;;;;;;11.10;8.80;;;;;;;20.25;51.38;98175.31;5087681;28;20263;-59
2022/04/10 11:07:12;;;;;;;13.70;8.70;;;;;;;20.01;51.83;98161.53;5087605;28;20426;-58
2022/04/10 11:09:49;;;;;;;13.33;8.43;;;;;;;20.20;51.96;98172.88;5087675;28;20204;-58
2022/04/10 11:12:16;;;;;;;13.80;9.03;;;;;;;20.37;51.25;98170.41;5087844;28;20851;-59
2022/04/10 11:14:45;;;;;;;15.73;8.37;;;;;;;20.47;50.83;98168.22;5089567;28;20221;-58
2022/04/10 11:17:17;;;;;;;11.60;8.67;;;;;;;20.98;50.16;98160.66;5090627;28;20277;-59
2022/04/10 11:19:46;;;;;;;8.57;6.73;;;;;;;21.29;48.76;98146.16;5090196;28;20194;-59
2022/04/10 11:22:14;;;;;;;16.70;7.17;;;;;;;21.52;46.54;98164.16;5090310;28;20187;-59
2022/04/10 11:24:44;;;;;;;9.20;6.87;;;;;;;21.51;46.27;98162.47;5090185;28;20215;-59
2022/04/10 11:27:13;;;;;;;8.67;7.07;;;;;;;21.31;46.18;98170.44;5090393;28;20321;-59
2022/04/10 11:29:50;;;;;;;9.20;6.37;;;;;;;21.39;46.81;98163.06;5090109;28;20198;-59
2022/04/10 11:32:18;;;;;;;9.30;5.93;;;;;;;;;;5090463;28;20217;-59
2022/04/10 11:34:45;;;;;;;11.90;7.27;;;;;;;21.30;46.92;98164.34;5090045;28;20657;-60
2022/04/10 11:37:21;;;;;;;6.70;6.00;;;;;;;21.28;47.05;98160.13;5089699;28;20191;-59
2022/04/10 11:39:51;;;;;;;12.37;6.60;;;;;;;21.21;47.71;98151.72;5090343;28;20200;-58
2022/04/10 11:42:18;;;;;;;7.20;5.97;;;;;;;21.17;47.09;98155.44;5090070;28;20224;-59
2022/04/10 11:44:49;;;;;;;11.40;8.57;;;;;;;20.76;45.32;98172.16;5090143;28;20218;-58
2022/04/10 11:47:16;;;;;;;9.60;8.38;;;;;;;20.44;45.50;98158.78;5089043;28;20921;-58
2022/04/10 11:49:51;;;;;;;8.90;8.10;;;;;;;20.43;44.63;98157.09;5090002;28;20542;-58
2022/04/10 11:52:21;;;;;;;8.33;7.50;;;;;;;20.26;44.26;98170.03;5090105;28;20251;-57
2022/04/10 11:54:51;;;;;;;7.90;7.07;;;;;;;20.12;43.94;98159.31;5090012;28;20191;-58
2022/04/10 11:57:18;;;;;;;8.57;6.37;;;;;;;19.90;44.18;98171.56;5089967;28;20739;-58
2022/04/10 11:59:47;;;;;;;7.13;6.07;;;;;;;19.94;45.11;98165.34;5089744;28;20191;-57
2022/04/10 12:02:15;;;;;;;7.22;5.78;;;;;;;19.93;42.98;98156.66;5089242;28;20428;-58
2022/04/10 12:04:43;;;;;;;6.17;4.77;;;;;;;19.72;43.33;98167.16;5089640;28;20211;-58
2022/04/10 12:07:12;;;;;;;5.70;5.20;;;;;;;19.34;43.99;98159.09;5089989;28;20640;-58
2022/04/10 12:09:39;;;;;;;4.77;4.27;;;;;;;19.72;43.04;98162.75;5091246;28;20203;-58
2022/04/10 12:12:07;;;;;;;7.93;4.13;;;;;;;19.72;42.32;98169.75;5104385;28;20635;-58
2022/04/10 12:14:34;;;;;;;6.17;4.73;;;;;;;19.51;42.48;98171.47;5089713;28;20270;-57
2022/04/10 12:17:03;;;;;;;6.00;4.70;;;;;;;19.00;44.13;98156.16;5089884;28;20191;-57
2022/04/10 12:19:33;;;;;;;4.37;3.80;;;;;;;19.30;43.62;98143.66;5089829;28;20190;-58
2022/04/10 12:22:00;;;;;;;4.30;3.90;;;;;;;19.23;43.04;98171.69;5098088;28;20259;-57
2022/04/10 12:24:26;;;;;;;4.37;3.80;;;;;;;19.41;43.08;98178.81;5110123;28;20533;-58
2022/04/10 12:26:54;;;;;;;3.33;3.13;;;;;;;19.26;42.44;98168.13;5109880;28;20464;-57
2022/04/10 12:29:22;;;;;;;5.70;3.60;;;;;;;19.25;41.99;98169.91;5109709;28;20304;-58
2022/04/10 12:31:50;;;;;;;3.27;2.97;;;;;;;19.19;42.02;98167.53;5109171;28;20285;-58
2022/04/10 12:34:18;;;;;;;3.90;3.50;;;;;;;18.56;43.21;98167.38;5108352;28;20189;-57
2022/04/10 12:36:46;;;;;;;4.47;3.83;;;;;;;18.18;44.54;98164.38;5107210;28;20431;-57
2022/04/10 12:39:24;;;;;;;5.00;4.17;;;;;;;18.26;44.07;98153.72;5108502;28;20601;-57
2022/04/10 12:41:59;;;;;;;4.63;3.80;;;;;;;18.05;44.87;98155.31;5108327;28;20198;-57